sensor_id;sensor_type;location;lat;lon;timestamp;temperature;humidity
8707;DHT22;4390;49.302;9.306;2022-07-29T00:02:15;24.00;66.70
8707;DHT22;4390;49.302;9.306;2022-07-29T00:04:42;23.90;66.60
8707;DHT22;4390;49.302;9.306;2022-07-29T00:07:08;23.80;66.60
8707;DHT22;4390;49.302;9.306;2022-07-29T00:09:36;23.80;66.60
8707;DHT22;4390;49.302;9.306;2022-07-29T00:12:19;23.80;66.80
8707;DHT22;4390;49.302;9.306;2022-07-29T00:14:55;23.70;67.70
8707;DHT22;4390;49.302;9.306;2022-07-29T00:17:23;23.60;67.90
8707;DHT22;4390;49.302;9.306;2022-07-29T00:19:50;23.60;68.00
8707;DHT22;4390;49.302;9.306;2022-07-29T00:22:17;23.50;68.00
8707;DHT22;4390;49.302;9.306;2022-07-29T00:24:44;23.40;67.80
8707;DHT22;4390;49.302;9.306;2022-07-29T00:27:10;23.40;68.00
8707;DHT22;4390;49.302;9.306;2022-07-29T00:29:37;23.30;68.30
8707;DHT22;4390;49.302;9.306;2022-07-29T00:32:04;23.20;68.50
8707;DHT22;4390;49.302;9.306;2022-07-29T00:34:31;23.20;68.40
8707;DHT22;4390;49.302;9.306;2022-07-29T00:37:16;23.20;68.30
8707;DHT22;4390;49.302;9.306;2022-07-29T00:39:43;23.10;68.30
8707;DHT22;4390;49.302;9.306;2022-07-29T00:42:10;23.00;68.30
8707;DHT22;4390;49.302;9.306;2022-07-29T00:44:41;23.00;68.30
8707;DHT22;4390;49.302;9.306;2022-07-29T00:47:09;23.00;68.40
8707;DHT22;4390;49.302;9.306;2022-07-29T00:49:39;22.90;68.50
8707;DHT22;4390;49.302;9.306;2022-07-29T00:52:07;22.90;68.60
8707;DHT22;4390;49.302;9.306;2022-07-29T00:54:35;22.80;68.80
8707;DHT22;4390;49.302;9.306;2022-07-29T00:57:11;22.70;68.90
8707;DHT22;4390;49.302;9.306;2022-07-29T00:59:38;22.70;69.00
8707;DHT22;4390;49.302;9.306;2022-07-29T01:02:05;22.70;69.00
8707;DHT22;4390;49.302;9.306;2022-07-29T01:04:32;22.60;69.10
8707;DHT22;4390;49.302;9.306;2022-07-29T01:07:00;22.50;69.10
8707;DHT22;4390;49.302;9.306;2022-07-29T01:09:28;22.50;69.20
8707;DHT22;4390;49.302;9.306;2022-07-29T01:12:23;22.50;69.30
8707;DHT22;4390;49.302;9.306;2022-07-29T01:14:52;22.40;69.80
8707;DHT22;4390;49.302;9.306;2022-07-29T01:17:32;22.30;69.90
8707;DHT22;4390;49.302;9.306;2022-07-29T01:20:15;22.30;69.90
8707;DHT22;4390;49.302;9.306;2022-07-29T01:23:27;22.30;70.10
8707;DHT22;4390;49.302;9.306;2022-07-29T01:29:02;22.10;70.00
8707;DHT22;4390;49.302;9.306;2022-07-29T01:32:13;22.10;70.20
8707;DHT22;4390;49.302;9.306;2022-07-29T01:35:06;22.10;70.30
8707;DHT22;4390;49.302;9.306;2022-07-29T01:37:44;22.00;70.40
8707;DHT22;4390;49.302;9.306;2022-07-29T01:42:55;22.00;70.80
8707;DHT22;4390;49.302;9.306;2022-07-29T01:45:28;21.90;70.80
8707;DHT22;4390;49.302;9.306;2022-07-29T01:48:03;21.90;70.80
8707;DHT22;4390;49.302;9.306;2022-07-29T01:50:35;21.90;70.80
8707;DHT22;4390;49.302;9.306;2022-07-29T01:53:06;21.80;70.80
8707;DHT22;4390;49.302;9.306;2022-07-29T01:55:38;21.80;70.90
8707;DHT22;4390;49.302;9.306;2022-07-29T01:58:06;21.80;70.90
8707;DHT22;4390;49.302;9.306;2022-07-29T02:00:35;21.80;71.00
8707;DHT22;4390;49.302;9.306;2022-07-29T02:03:05;21.70;71.10
8707;DHT22;4390;49.302;9.306;2022-07-29T02:05:35;21.70;71.20
8707;DHT22;4390;49.302;9.306;2022-07-29T02:08:03;21.70;71.10
8707;DHT22;4390;49.302;9.306;2022-07-29T02:10:33;21.70;71.20
8707;DHT22;4390;49.302;9.306;2022-07-29T02:13:02;21.60;71.20
8707;DHT22;4390;49.302;9.306;2022-07-29T02:15:32;21.50;71.60
8707;DHT22;4390;49.302;9.306;2022-07-29T02:18:11;21.40;72.00
8707;DHT22;4390;49.302;9.306;2022-07-29T02:20:39;21.50;72.00
8707;DHT22;4390;49.302;9.306;2022-07-29T02:23:07;21.50;71.90
8707;DHT22;4390;49.302;9.306;2022-07-29T02:25:37;21.50;71.80
8707;DHT22;4390;49.302;9.306;2022-07-29T02:28:06;21.50;71.70
8707;DHT22;4390;49.302;9.306;2022-07-29T02:30:36;21.50;71.60
8707;DHT22;4390;49.302;9.306;2022-07-29T02:33:05;21.50;71.60
8707;DHT22;4390;49.302;9.306;2022-07-29T02:35:32;21.50;71.70
8707;DHT22;4390;49.302;9.306;2022-07-29T02:38:01;21.50;71.80
8707;DHT22;4390;49.302;9.306;2022-07-29T02:40:48;21.40;71.90
8707;DHT22;4390;49.302;9.306;2022-07-29T02:43:17;21.40;72.10
8707;DHT22;4390;49.302;9.306;2022-07-29T02:45:47;21.30;71.90
8707;DHT22;4390;49.302;9.306;2022-07-29T02:48:18;21.30;71.90
8707;DHT22;4390;49.302;9.306;2022-07-29T02:50:53;21.30;72.00
8707;DHT22;4390;49.302;9.306;2022-07-29T02:53:26;21.30;72.10
8707;DHT22;4390;49.302;9.306;2022-07-29T02:55:57;21.30;72.10
8707;DHT22;4390;49.302;9.306;2022-07-29T02:58:46;21.30;72.20
8707;DHT22;4390;49.302;9.306;2022-07-29T03:01:21;21.30;72.30
8707;DHT22;4390;49.302;9.306;2022-07-29T03:03:50;21.30;72.50
8707;DHT22;4390;49.302;9.306;2022-07-29T03:06:20;21.20;72.70
8707;DHT22;4390;49.302;9.306;2022-07-29T03:09:06;21.20;72.90
8707;DHT22;4390;49.302;9.306;2022-07-29T03:11:40;21.20;72.80
8707;DHT22;4390;49.302;9.306;2022-07-29T03:14:19;21.20;72.70
8707;DHT22;4390;49.302;9.306;2022-07-29T03:16:48;21.10;72.70
8707;DHT22;4390;49.302;9.306;2022-07-29T03:19:16;21.10;72.70
8707;DHT22;4390;49.302;9.306;2022-07-29T03:21:43;21.10;72.90
8707;DHT22;4390;49.302;9.306;2022-07-29T03:24:10;21.10;73.00
8707;DHT22;4390;49.302;9.306;2022-07-29T03:26:36;21.00;73.10
8707;DHT22;4390;49.302;9.306;2022-07-29T03:29:03;21.00;73.20
8707;DHT22;4390;49.302;9.306;2022-07-29T03:31:31;21.00;73.30
8707;DHT22;4390;49.302;9.306;2022-07-29T03:33:59;20.90;73.30
8707;DHT22;4390;49.302;9.306;2022-07-29T03:36:26;20.90;73.30
8707;DHT22;4390;49.302;9.306;2022-07-29T03:38:53;20.90;73.30
8707;DHT22;4390;49.302;9.306;2022-07-29T03:41:22;20.80;73.20
8707;DHT22;4390;49.302;9.306;2022-07-29T03:43:49;20.70;73.30
8707;DHT22;4390;49.302;9.306;2022-07-29T03:46:20;20.70;73.40
8707;DHT22;4390;49.302;9.306;2022-07-29T03:48:51;20.60;73.60
8707;DHT22;4390;49.302;9.306;2022-07-29T03:51:19;20.50;73.80
8707;DHT22;4390;49.302;9.306;2022-07-29T03:54:01;20.50;73.80
8707;DHT22;4390;49.302;9.306;2022-07-29T03:56:43;20.50;73.60
8707;DHT22;4390;49.302;9.306;2022-07-29T03:59:13;20.50;73.70
8707;DHT22;4390;49.302;9.306;2022-07-29T04:01:41;20.50;73.90
8707;DHT22;4390;49.302;9.306;2022-07-29T04:04:09;20.50;73.90
8707;DHT22;4390;49.302;9.306;2022-07-29T04:06:43;20.50;73.90
8707;DHT22;4390;49.302;9.306;2022-07-29T04:09:12;20.50;73.80
8707;DHT22;4390;49.302;9.306;2022-07-29T04:11:39;20.50;73.70
8707;DHT22;4390;49.302;9.306;2022-07-29T04:14:26;20.50;73.70
8707;DHT22;4390;49.302;9.306;2022-07-29T04:16:53;20.50;73.50
8707;DHT22;4390;49.302;9.306;2022-07-29T04:19:20;20.50;73.40
8707;DHT22;4390;49.302;9.306;2022-07-29T04:21:47;20.50;73.40
8707;DHT22;4390;49.302;9.306;2022-07-29T04:24:13;20.50;73.50
8707;DHT22;4390;49.302;9.306;2022-07-29T04:26:41;20.50;73.50
8707;DHT22;4390;49.302;9.306;2022-07-29T04:29:08;20.50;73.60
8707;DHT22;4390;49.302;9.306;2022-07-29T04:31:35;20.50;73.50
8707;DHT22;4390;49.302;9.306;2022-07-29T04:34:02;20.50;73.30
8707;DHT22;4390;49.302;9.306;2022-07-29T04:36:28;20.50;73.30
8707;DHT22;4390;49.302;9.306;2022-07-29T04:38:56;20.40;73.50
8707;DHT22;4390;49.302;9.306;2022-07-29T04:41:22;20.40;73.50
8707;DHT22;4390;49.302;9.306;2022-07-29T04:43:58;20.40;73.40
8707;DHT22;4390;49.302;9.306;2022-07-29T04:46:27;20.50;73.40
8707;DHT22;4390;49.302;9.306;2022-07-29T04:48:54;20.50;73.40
8707;DHT22;4390;49.302;9.306;2022-07-29T04:51:22;20.50;73.20
8707;DHT22;4390;49.302;9.306;2022-07-29T04:53:48;20.50;73.20
8707;DHT22;4390;49.302;9.306;2022-07-29T04:56:15;20.60;73.10
8707;DHT22;4390;49.302;9.306;2022-07-29T04:58:42;20.60;72.80
8707;DHT22;4390;49.302;9.306;2022-07-29T05:01:08;20.70;72.70
8707;DHT22;4390;49.302;9.306;2022-07-29T05:03:35;20.70;72.80
8707;DHT22;4390;49.302;9.306;2022-07-29T05:06:02;20.60;72.90
8707;DHT22;4390;49.302;9.306;2022-07-29T05:08:29;20.60;72.90
8707;DHT22;4390;49.302;9.306;2022-07-29T05:10:56;20.70;73.00
8707;DHT22;4390;49.302;9.306;2022-07-29T05:13:23;20.70;73.10
8707;DHT22;4390;49.302;9.306;2022-07-29T05:15:49;20.80;73.20
8707;DHT22;4390;49.302;9.306;2022-07-29T05:18:16;20.80;73.20
8707;DHT22;4390;49.302;9.306;2022-07-29T05:20:43;20.80;73.30
8707;DHT22;4390;49.302;9.306;2022-07-29T05:23:10;20.90;73.10
8707;DHT22;4390;49.302;9.306;2022-07-29T05:25:39;21.00;73.10
8707;DHT22;4390;49.302;9.306;2022-07-29T05:28:11;21.00;73.00
8707;DHT22;4390;49.302;9.306;2022-07-29T05:30:38;21.10;72.80
8707;DHT22;4390;49.302;9.306;2022-07-29T05:33:05;21.20;72.80
8707;DHT22;4390;49.302;9.306;2022-07-29T05:35:32;21.30;72.90
8707;DHT22;4390;49.302;9.306;2022-07-29T05:37:58;21.30;72.70
8707;DHT22;4390;49.302;9.306;2022-07-29T05:40:25;21.30;72.60
8707;DHT22;4390;49.302;9.306;2022-07-29T05:42:52;21.40;72.40
8707;DHT22;4390;49.302;9.306;2022-07-29T05:45:19;21.40;72.40
8707;DHT22;4390;49.302;9.306;2022-07-29T05:47:45;21.50;72.60
8707;DHT22;4390;49.302;9.306;2022-07-29T05:50:13;21.50;72.60
8707;DHT22;4390;49.302;9.306;2022-07-29T05:52:40;21.40;72.80
8707;DHT22;4390;49.302;9.306;2022-07-29T05:55:07;21.50;72.70
8707;DHT22;4390;49.302;9.306;2022-07-29T05:57:34;21.60;72.50
8707;DHT22;4390;49.302;9.306;2022-07-29T06:00:01;21.70;72.40
8707;DHT22;4390;49.302;9.306;2022-07-29T06:02:37;21.80;72.30
8707;DHT22;4390;49.302;9.306;2022-07-29T06:05:04;21.90;71.90
8707;DHT22;4390;49.302;9.306;2022-07-29T06:07:38;22.00;71.70
8707;DHT22;4390;49.302;9.306;2022-07-29T06:10:15;22.00;71.50
8707;DHT22;4390;49.302;9.306;2022-07-29T06:12:42;22.10;71.30
8707;DHT22;4390;49.302;9.306;2022-07-29T06:15:09;22.20;71.30
8707;DHT22;4390;49.302;9.306;2022-07-29T06:17:36;22.30;71.10
8707;DHT22;4390;49.302;9.306;2022-07-29T06:20:23;22.40;71.00
8707;DHT22;4390;49.302;9.306;2022-07-29T06:22:52;22.40;70.80
8707;DHT22;4390;49.302;9.306;2022-07-29T06:25:19;22.50;70.50
8707;DHT22;4390;49.302;9.306;2022-07-29T06:27:46;22.60;70.50
8707;DHT22;4390;49.302;9.306;2022-07-29T06:30:13;22.80;70.10
8707;DHT22;4390;49.302;9.306;2022-07-29T06:32:40;22.90;70.20
8707;DHT22;4390;49.302;9.306;2022-07-29T06:35:09;22.90;70.30
8707;DHT22;4390;49.302;9.306;2022-07-29T06:37:56;22.90;69.70
8707;DHT22;4390;49.302;9.306;2022-07-29T06:40:28;23.00;69.80
8707;DHT22;4390;49.302;9.306;2022-07-29T06:43:16;23.10;69.80
8707;DHT22;4390;49.302;9.306;2022-07-29T06:45:42;23.20;69.40
8707;DHT22;4390;49.302;9.306;2022-07-29T06:48:10;23.30;69.30
8707;DHT22;4390;49.302;9.306;2022-07-29T06:50:37;23.30;69.30
8707;DHT22;4390;49.302;9.306;2022-07-29T06:53:05;23.20;69.40
8707;DHT22;4390;49.302;9.306;2022-07-29T06:55:32;23.30;69.20
8707;DHT22;4390;49.302;9.306;2022-07-29T06:57:59;23.40;69.30
8707;DHT22;4390;49.302;9.306;2022-07-29T07:00:26;23.50;69.30
8707;DHT22;4390;49.302;9.306;2022-07-29T07:02:52;23.60;69.30
8707;DHT22;4390;49.302;9.306;2022-07-29T07:05:19;23.80;68.90
8707;DHT22;4390;49.302;9.306;2022-07-29T07:07:46;23.90;68.70
8707;DHT22;4390;49.302;9.306;2022-07-29T07:10:13;23.80;68.70
8707;DHT22;4390;49.302;9.306;2022-07-29T07:12:41;23.90;69.10
8707;DHT22;4390;49.302;9.306;2022-07-29T07:15:08;24.00;69.00
8707;DHT22;4390;49.302;9.306;2022-07-29T07:17:35;23.90;69.70
8707;DHT22;4390;49.302;9.306;2022-07-29T07:20:02;23.90;69.70
8707;DHT22;4390;49.302;9.306;2022-07-29T07:22:28;23.90;70.00
8707;DHT22;4390;49.302;9.306;2022-07-29T07:24:55;24.00;70.30
8707;DHT22;4390;49.302;9.306;2022-07-29T07:27:22;24.10;70.40
8707;DHT22;4390;49.302;9.306;2022-07-29T07:29:49;23.90;70.70
8707;DHT22;4390;49.302;9.306;2022-07-29T07:32:16;23.90;70.90
8707;DHT22;4390;49.302;9.306;2022-07-29T07:34:43;23.90;71.10
8707;DHT22;4390;49.302;9.306;2022-07-29T07:37:10;23.90;71.30
8707;DHT22;4390;49.302;9.306;2022-07-29T07:39:36;23.90;71.50
8707;DHT22;4390;49.302;9.306;2022-07-29T07:42:03;24.10;71.50
8707;DHT22;4390;49.302;9.306;2022-07-29T07:44:30;24.20;71.30
8707;DHT22;4390;49.302;9.306;2022-07-29T07:46:57;24.20;71.50
8707;DHT22;4390;49.302;9.306;2022-07-29T07:49:29;24.30;71.60
8707;DHT22;4390;49.302;9.306;2022-07-29T07:51:56;24.40;71.60
8707;DHT22;4390;49.302;9.306;2022-07-29T07:54:23;24.70;71.60
8707;DHT22;4390;49.302;9.306;2022-07-29T07:56:50;24.90;71.80
8707;DHT22;4390;49.302;9.306;2022-07-29T07:59:19;25.10;72.10
8707;DHT22;4390;49.302;9.306;2022-07-29T08:01:46;25.20;73.10
8707;DHT22;4390;49.302;9.306;2022-07-29T08:04:21;25.20;73.10
8707;DHT22;4390;49.302;9.306;2022-07-29T08:06:54;25.40;73.00
8707;DHT22;4390;49.302;9.306;2022-07-29T08:09:22;25.50;73.20
8707;DHT22;4390;49.302;9.306;2022-07-29T08:11:56;25.70;72.90
8707;DHT22;4390;49.302;9.306;2022-07-29T08:14:24;25.70;73.00
8707;DHT22;4390;49.302;9.306;2022-07-29T08:16:51;25.80;72.80
8707;DHT22;4390;49.302;9.306;2022-07-29T08:19:18;25.90;72.40
8707;DHT22;4390;49.302;9.306;2022-07-29T08:21:45;26.10;72.00
8707;DHT22;4390;49.302;9.306;2022-07-29T08:24:12;26.30;71.70
8707;DHT22;4390;49.302;9.306;2022-07-29T08:26:58;26.40;71.20
8707;DHT22;4390;49.302;9.306;2022-07-29T08:29:24;26.50;71.10
8707;DHT22;4390;49.302;9.306;2022-07-29T08:31:51;26.50;70.80
8707;DHT22;4390;49.302;9.306;2022-07-29T08:34:19;26.40;70.50
8707;DHT22;4390;49.302;9.306;2022-07-29T08:36:54;26.20;71.50
8707;DHT22;4390;49.302;9.306;2022-07-29T08:39:21;26.20;71.60
8707;DHT22;4390;49.302;9.306;2022-07-29T08:41:48;26.30;71.30
8707;DHT22;4390;49.302;9.306;2022-07-29T08:44:23;26.50;70.60
8707;DHT22;4390;49.302;9.306;2022-07-29T08:46:57;26.70;70.30
8707;DHT22;4390;49.302;9.306;2022-07-29T08:49:24;26.90;70.00
8707;DHT22;4390;49.302;9.306;2022-07-29T08:51:51;27.00;69.80
8707;DHT22;4390;49.302;9.306;2022-07-29T08:54:21;26.90;69.80
8707;DHT22;4390;49.302;9.306;2022-07-29T08:56:50;27.00;69.80
8707;DHT22;4390;49.302;9.306;2022-07-29T08:59:22;27.20;69.60
8707;DHT22;4390;49.302;9.306;2022-07-29T09:01:52;27.40;69.30
8707;DHT22;4390;49.302;9.306;2022-07-29T09:04:21;27.60;69.20
8707;DHT22;4390;49.302;9.306;2022-07-29T09:06:51;27.70;68.70
8707;DHT22;4390;49.302;9.306;2022-07-29T09:09:21;27.70;68.80
8707;DHT22;4390;49.302;9.306;2022-07-29T09:11:48;27.80;68.70
8707;DHT22;4390;49.302;9.306;2022-07-29T09:14:14;27.80;68.80
8707;DHT22;4390;49.302;9.306;2022-07-29T09:16:55;27.90;68.90
8707;DHT22;4390;49.302;9.306;2022-07-29T09:19:30;27.90;68.50
8707;DHT22;4390;49.302;9.306;2022-07-29T09:21:59;28.00;68.20
8707;DHT22;4390;49.302;9.306;2022-07-29T09:24:44;28.00;68.30
8707;DHT22;4390;49.302;9.306;2022-07-29T09:27:18;28.20;68.20
8707;DHT22;4390;49.302;9.306;2022-07-29T09:29:54;28.20;68.20
8707;DHT22;4390;49.302;9.306;2022-07-29T09:32:22;28.00;68.40
8707;DHT22;4390;49.302;9.306;2022-07-29T09:34:49;28.20;68.30
8707;DHT22;4390;49.302;9.306;2022-07-29T09:37:26;28.30;67.90
8707;DHT22;4390;49.302;9.306;2022-07-29T09:39:54;28.30;67.20
8707;DHT22;4390;49.302;9.306;2022-07-29T09:42:28;28.30;67.50
8707;DHT22;4390;49.302;9.306;2022-07-29T09:44:55;28.30;67.80
8707;DHT22;4390;49.302;9.306;2022-07-29T09:47:22;28.50;67.70
8707;DHT22;4390;49.302;9.306;2022-07-29T09:50:06;28.60;67.20
8707;DHT22;4390;49.302;9.306;2022-07-29T09:52:48;28.70;67.40
8707;DHT22;4390;49.302;9.306;2022-07-29T09:55:16;28.90;67.40
8707;DHT22;4390;49.302;9.306;2022-07-29T09:57:46;29.00;67.00
8707;DHT22;4390;49.302;9.306;2022-07-29T10:00:17;29.10;66.90
8707;DHT22;4390;49.302;9.306;2022-07-29T10:02:46;29.30;66.40
8707;DHT22;4390;49.302;9.306;2022-07-29T10:07:52;29.60;66.20
8707;DHT22;4390;49.302;9.306;2022-07-29T10:10:30;29.80;65.50
8707;DHT22;4390;49.302;9.306;2022-07-29T10:13:02;29.90;65.70
8707;DHT22;4390;49.302;9.306;2022-07-29T10:15:38;29.80;65.70
8707;DHT22;4390;49.302;9.306;2022-07-29T10:18:08;29.90;65.70
8707;DHT22;4390;49.302;9.306;2022-07-29T10:20:35;30.00;65.40
8707;DHT22;4390;49.302;9.306;2022-07-29T10:23:03;30.00;65.50
8707;DHT22;4390;49.302;9.306;2022-07-29T10:25:31;30.00;65.40
8707;DHT22;4390;49.302;9.306;2022-07-29T10:27:58;30.00;65.70
8707;DHT22;4390;49.302;9.306;2022-07-29T10:30:25;29.70;66.00
8707;DHT22;4390;49.302;9.306;2022-07-29T10:33:10;29.60;66.60
8707;DHT22;4390;49.302;9.306;2022-07-29T10:41:29;30.00;65.20
8707;DHT22;4390;49.302;9.306;2022-07-29T10:44:23;30.30;65.00
8707;DHT22;4390;49.302;9.306;2022-07-29T10:46:51;30.60;64.30
8707;DHT22;4390;49.302;9.306;2022-07-29T10:49:24;30.90;63.60
8707;DHT22;4390;49.302;9.306;2022-07-29T10:52:09;31.10;63.60
8707;DHT22;4390;49.302;9.306;2022-07-29T10:54:44;31.10;63.00
8707;DHT22;4390;49.302;9.306;2022-07-29T10:57:16;31.00;62.90
8707;DHT22;4390;49.302;9.306;2022-07-29T11:05:13;31.50;61.90
8707;DHT22;4390;49.302;9.306;2022-07-29T11:10:47;31.70;62.10
8707;DHT22;4390;49.302;9.306;2022-07-29T11:16:13;31.70;61.80
8707;DHT22;4390;49.302;9.306;2022-07-29T11:21:41;31.90;62.00
8707;DHT22;4390;49.302;9.306;2022-07-29T11:24:23;31.90;62.30
8707;DHT22;4390;49.302;9.306;2022-07-29T11:27:30;32.00;61.90
8707;DHT22;4390;49.302;9.306;2022-07-29T11:29:58;32.20;62.00
8707;DHT22;4390;49.302;9.306;2022-07-29T11:32:40;32.20;62.00
8707;DHT22;4390;49.302;9.306;2022-07-29T11:35:18;32.60;62.10
8707;DHT22;4390;49.302;9.306;2022-07-29T11:43:57;32.70;61.60
8707;DHT22;4390;49.302;9.306;2022-07-29T11:46:50;32.50;62.20
8707;DHT22;4390;49.302;9.306;2022-07-29T11:49:24;32.30;62.50
8707;DHT22;4390;49.302;9.306;2022-07-29T11:51:59;32.10;62.60
8707;DHT22;4390;49.302;9.306;2022-07-29T11:54:34;32.20;62.30
8707;DHT22;4390;49.302;9.306;2022-07-29T11:57:21;32.20;62.50
8707;DHT22;4390;49.302;9.306;2022-07-29T12:00:06;32.40;62.40
8707;DHT22;4390;49.302;9.306;2022-07-29T12:02:42;32.50;62.40
8707;DHT22;4390;49.302;9.306;2022-07-29T12:05:15;32.90;61.70
8707;DHT22;4390;49.302;9.306;2022-07-29T12:08:07;32.90;61.70
8707;DHT22;4390;49.302;9.306;2022-07-29T12:10:43;33.00;61.20
8707;DHT22;4390;49.302;9.306;2022-07-29T12:13:10;33.00;61.20
8707;DHT22;4390;49.302;9.306;2022-07-29T12:15:38;33.10;61.30
8707;DHT22;4390;49.302;9.306;2022-07-29T12:18:17;33.20;61.10
8707;DHT22;4390;49.302;9.306;2022-07-29T12:21:05;33.30;61.00
8707;DHT22;4390;49.302;9.306;2022-07-29T12:23:38;33.30;61.00
8707;DHT22;4390;49.302;9.306;2022-07-29T12:26:08;33.40;60.70
8707;DHT22;4390;49.302;9.306;2022-07-29T12:28:47;33.40;60.40
8707;DHT22;4390;49.302;9.306;2022-07-29T12:31:15;33.60;60.40
8707;DHT22;4390;49.302;9.306;2022-07-29T12:34:02;33.90;59.70
8707;DHT22;4390;49.302;9.306;2022-07-29T12:36:29;33.90;59.50
8707;DHT22;4390;49.302;9.306;2022-07-29T12:39:06;34.10;59.20
8707;DHT22;4390;49.302;9.306;2022-07-29T12:41:39;34.20;59.10
8707;DHT22;4390;49.302;9.306;2022-07-29T12:44:10;34.30;59.10
8707;DHT22;4390;49.302;9.306;2022-07-29T12:46:42;34.40;59.10
8707;DHT22;4390;49.302;9.306;2022-07-29T12:49:26;34.40;59.00
8707;DHT22;4390;49.302;9.306;2022-07-29T12:52:27;34.60;59.10
8707;DHT22;4390;49.302;9.306;2022-07-29T12:54:54;34.70;59.20
8707;DHT22;4390;49.302;9.306;2022-07-29T12:57:21;34.70;59.10
8707;DHT22;4390;49.302;9.306;2022-07-29T13:02:58;34.60;58.90
8707;DHT22;4390;49.302;9.306;2022-07-29T13:05:43;34.30;59.00
8707;DHT22;4390;49.302;9.306;2022-07-29T13:08:16;34.10;59.40
8707;DHT22;4390;49.302;9.306;2022-07-29T13:10:48;34.10;59.40
8707;DHT22;4390;49.302;9.306;2022-07-29T13:13:15;33.60;59.80
8707;DHT22;4390;49.302;9.306;2022-07-29T13:15:43;33.50;59.90
8707;DHT22;4390;49.302;9.306;2022-07-29T13:20:54;33.60;59.60
8707;DHT22;4390;49.302;9.306;2022-07-29T13:23:21;33.30;60.00
8707;DHT22;4390;49.302;9.306;2022-07-29T13:25:48;33.10;59.70
8707;DHT22;4390;49.302;9.306;2022-07-29T13:28:15;33.10;59.00
8707;DHT22;4390;49.302;9.306;2022-07-29T13:30:46;33.10;59.30
8707;DHT22;4390;49.302;9.306;2022-07-29T13:33:14;33.10;59.30
8707;DHT22;4390;49.302;9.306;2022-07-29T13:35:40;32.80;59.50
8707;DHT22;4390;49.302;9.306;2022-07-29T13:38:10;32.80;59.50
8707;DHT22;4390;49.302;9.306;2022-07-29T13:40:42;32.70;59.60
8707;DHT22;4390;49.302;9.306;2022-07-29T13:43:13;32.70;59.60
8707;DHT22;4390;49.302;9.306;2022-07-29T13:45:40;32.60;60.10
8707;DHT22;4390;49.302;9.306;2022-07-29T13:48:07;32.50;60.00
8707;DHT22;4390;49.302;9.306;2022-07-29T13:50:34;32.40;60.00
8707;DHT22;4390;49.302;9.306;2022-07-29T13:53:07;32.40;59.60
8707;DHT22;4390;49.302;9.306;2022-07-29T13:55:34;32.20;60.00
8707;DHT22;4390;49.302;9.306;2022-07-29T13:58:01;32.20;60.30
8707;DHT22;4390;49.302;9.306;2022-07-29T14:00:30;32.10;60.20
8707;DHT22;4390;49.302;9.306;2022-07-29T14:02:57;32.10;60.00
8707;DHT22;4390;49.302;9.306;2022-07-29T14:05:24;32.10;60.00
8707;DHT22;4390;49.302;9.306;2022-07-29T14:07:51;32.00;59.70
8707;DHT22;4390;49.302;9.306;2022-07-29T14:10:18;32.10;59.60
8707;DHT22;4390;49.302;9.306;2022-07-29T14:12:46;32.10;59.10
8707;DHT22;4390;49.302;9.306;2022-07-29T14:15:12;31.90;59.00
8707;DHT22;4390;49.302;9.306;2022-07-29T14:17:39;31.80;59.10
8707;DHT22;4390;49.302;9.306;2022-07-29T14:20:06;31.60;59.40
8707;DHT22;4390;49.302;9.306;2022-07-29T14:22:33;31.50;59.90
8707;DHT22;4390;49.302;9.306;2022-07-29T14:25:08;31.40;60.00
8707;DHT22;4390;49.302;9.306;2022-07-29T14:27:41;31.40;59.90
8707;DHT22;4390;49.302;9.306;2022-07-29T14:30:08;31.50;60.20
8707;DHT22;4390;49.302;9.306;2022-07-29T14:32:39;31.70;59.80
8707;DHT22;4390;49.302;9.306;2022-07-29T14:35:07;31.70;59.70
8707;DHT22;4390;49.302;9.306;2022-07-29T14:37:37;31.70;59.70
8707;DHT22;4390;49.302;9.306;2022-07-29T14:40:08;31.80;59.60
8707;DHT22;4390;49.302;9.306;2022-07-29T14:42:35;31.10;61.10
8707;DHT22;4390;49.302;9.306;2022-07-29T14:45:05;30.90;61.50
8707;DHT22;4390;49.302;9.306;2022-07-29T14:47:33;31.00;61.70
8707;DHT22;4390;49.302;9.306;2022-07-29T14:50:04;31.00;61.70
8707;DHT22;4390;49.302;9.306;2022-07-29T14:52:31;30.70;62.40
8707;DHT22;4390;49.302;9.306;2022-07-29T14:54:58;30.30;63.00
8707;DHT22;4390;49.302;9.306;2022-07-29T14:57:26;30.10;63.40
8707;DHT22;4390;49.302;9.306;2022-07-29T14:59:53;30.10;63.70
8707;DHT22;4390;49.302;9.306;2022-07-29T15:02:20;29.90;63.90
8707;DHT22;4390;49.302;9.306;2022-07-29T15:04:47;29.80;63.90
8707;DHT22;4390;49.302;9.306;2022-07-29T15:07:15;29.80;63.90
8707;DHT22;4390;49.302;9.306;2022-07-29T15:09:42;29.70;64.00
8707;DHT22;4390;49.302;9.306;2022-07-29T15:12:15;29.50;64.00
8707;DHT22;4390;49.302;9.306;2022-07-29T15:14:42;29.30;64.40
8707;DHT22;4390;49.302;9.306;2022-07-29T15:17:09;29.40;64.80
8707;DHT22;4390;49.302;9.306;2022-07-29T15:19:37;29.30;65.00
8707;DHT22;4390;49.302;9.306;2022-07-29T15:22:04;29.30;65.00
8707;DHT22;4390;49.302;9.306;2022-07-29T15:24:33;29.30;65.10
8707;DHT22;4390;49.302;9.306;2022-07-29T15:27:00;29.30;64.90
8707;DHT22;4390;49.302;9.306;2022-07-29T15:29:27;29.30;64.60
8707;DHT22;4390;49.302;9.306;2022-07-29T15:31:54;29.50;64.30
8707;DHT22;4390;49.302;9.306;2022-07-29T15:34:21;29.50;64.00
8707;DHT22;4390;49.302;9.306;2022-07-29T15:36:50;29.40;64.20
8707;DHT22;4390;49.302;9.306;2022-07-29T15:39:20;29.50;64.20
8707;DHT22;4390;49.302;9.306;2022-07-29T15:41:48;29.70;63.90
8707;DHT22;4390;49.302;9.306;2022-07-29T15:44:15;29.80;63.90
8707;DHT22;4390;49.302;9.306;2022-07-29T15:46:42;29.90;63.60
8707;DHT22;4390;49.302;9.306;2022-07-29T15:49:32;30.00;63.50
8707;DHT22;4390;49.302;9.306;2022-07-29T15:52:18;30.00;63.30
8707;DHT22;4390;49.302;9.306;2022-07-29T15:54:51;29.90;63.40
8707;DHT22;4390;49.302;9.306;2022-07-29T15:57:18;29.70;63.60
8707;DHT22;4390;49.302;9.306;2022-07-29T15:59:45;29.60;63.90
8707;DHT22;4390;49.302;9.306;2022-07-29T16:02:12;29.70;63.80
8707;DHT22;4390;49.302;9.306;2022-07-29T16:04:38;29.80;63.60
8707;DHT22;4390;49.302;9.306;2022-07-29T16:07:05;29.80;63.60
8707;DHT22;4390;49.302;9.306;2022-07-29T16:09:33;29.70;63.70
8707;DHT22;4390;49.302;9.306;2022-07-29T16:12:06;29.50;63.70
8707;DHT22;4390;49.302;9.306;2022-07-29T16:14:44;29.30;64.10
8707;DHT22;4390;49.302;9.306;2022-07-29T16:17:11;29.20;63.90
8707;DHT22;4390;49.302;9.306;2022-07-29T16:19:41;29.20;62.90
8707;DHT22;4390;49.302;9.306;2022-07-29T16:22:09;29.20;63.10
8707;DHT22;4390;49.302;9.306;2022-07-29T16:24:39;29.20;62.50
8707;DHT22;4390;49.302;9.306;2022-07-29T16:27:06;29.20;62.30
8707;DHT22;4390;49.302;9.306;2022-07-29T16:29:40;29.10;62.90
8707;DHT22;4390;49.302;9.306;2022-07-29T16:32:07;29.00;63.40
8707;DHT22;4390;49.302;9.306;2022-07-29T16:34:35;29.10;64.00
8707;DHT22;4390;49.302;9.306;2022-07-29T16:37:05;29.10;64.40
8707;DHT22;4390;49.302;9.306;2022-07-29T16:39:32;29.10;65.10
8707;DHT22;4390;49.302;9.306;2022-07-29T16:41:59;29.10;64.80
8707;DHT22;4390;49.302;9.306;2022-07-29T16:44:30;29.00;65.20
8707;DHT22;4390;49.302;9.306;2022-07-29T16:46:58;28.90;64.90
8707;DHT22;4390;49.302;9.306;2022-07-29T16:49:26;28.80;64.60
8707;DHT22;4390;49.302;9.306;2022-07-29T16:51:53;28.80;64.60
8707;DHT22;4390;49.302;9.306;2022-07-29T16:54:20;28.80;64.80
8707;DHT22;4390;49.302;9.306;2022-07-29T16:56:47;28.70;65.30
8707;DHT22;4390;49.302;9.306;2022-07-29T16:59:14;28.70;65.50
8707;DHT22;4390;49.302;9.306;2022-07-29T17:01:40;28.60;65.40
8707;DHT22;4390;49.302;9.306;2022-07-29T17:04:07;28.60;65.90
8707;DHT22;4390;49.302;9.306;2022-07-29T17:06:36;28.40;66.30